Terminal Aerodrome Forecast
Issued by NWS Mt. Holly, NJ

Home | Current Version | Previous Version | Text Only | Print | Product List | Glossary On
Versions: 1 2 3 4 5 6 7 8 9 10 11 12 13 14 15 16 17 18 19 20 21 22 23 24 25 26 27 28 29 30 31 32 33 34 35 36 37 38 39 40 41 42 43 44 45 46 47 48 49 50
000
FTAK31 PANC 041749
TAFABE
TAF
PABE 041749Z 0418/0518 09012KT P6SM FEW080 BKN120
     FM042000 09015G22KT P6SM -RA BKN040 OVC080
     FM050300 10010KT P6SM -RA SCT025 BKN040 OVC060
     FM051200 11010KT P6SM SCT040 BKN080=

USA.gov is the U.S. government's official web portal to all federal, state and local government web resources and services.